Time;durP1;ratioP1;P1;durP2;ratioP2;P2;SDS_P1;SDS_P2;PMS_P1;PMS_P2;Temp;Humidity;BMP_temperature;BMP_pressure;BME280_temperature;BME280_humidity;BME280_pressure;Samples;Min_cycle;Max_cycle;Signal;HPM_P1;HPM_P2
2022/02/10 00:16:20;;;;;;;5.43;3.70;;;;;;;;;;6119415;23;20877;-87
2022/02/10 00:23:20;;;;;;;5.53;3.87;;;;;;;;;;6137223;23;21004;-87
2022/02/10 00:36:38;;;;;;;5.73;3.87;;;;;;;;;;6136702;23;20554;-86
2022/02/10 00:40:05;;;;;;;4.67;3.00;;;;;;;;;;6119337;23;20518;-86
2022/02/10 00:43:10;;;;;;;5.67;3.50;;;;;;;;;;6103292;23;20501;-87
2022/02/10 00:46:14;;;;;;;5.93;3.93;;;;;;;;;;6103058;23;20514;-87
2022/02/10 00:49:18;;;;;;;7.93;3.60;;;;;;;;;;6093291;23;20884;-87
2022/02/10 00:52:22;;;;;;;6.23;2.93;;;;;;;;;;6119381;23;20518;-86
2022/02/10 00:55:29;;;;;;;6.73;3.40;;;;;;;;;;6102842;23;20518;-87
2022/02/10 00:58:35;;;;;;;4.10;3.27;;;;;;;;;;6093124;23;21138;-87
2022/02/10 01:31:43;;;;;;;5.43;3.17;;;;;;;;;;6102260;23;20515;-87
2022/02/10 01:34:50;;;;;;;3.90;2.87;;;;;;;;;;6119028;23;20518;-87
2022/02/10 01:37:55;;;;;;;3.43;2.60;;;;;;;;;;6110139;23;20612;-86
2022/02/10 01:41:48;;;;;;;6.97;3.17;;;;;;;;;;6148535;23;20506;-87
2022/02/10 01:58:10;;;;;;;6.97;2.80;;;;;;;;;;6144077;23;20617;-87
2022/02/10 02:04:42;;;;;;;5.33;3.20;;;;;;;;;;6123242;23;20569;-87
2022/02/10 02:07:47;;;;;;;4.97;3.00;;;;;;;;;;6127945;23;20568;-87
2022/02/10 02:10:51;;;;;;;4.57;2.83;;;;;;;;;;6131334;23;20517;-87
2022/02/10 02:13:55;;;;;;;4.97;3.20;;;;;;;;;;6131549;23;20502;-87
2022/02/10 02:17:03;;;;;;;6.30;3.13;;;;;;;;;;6147594;23;20572;-85
2022/02/10 02:20:07;;;;;;;5.40;3.00;;;;;;;;;;6138531;23;20549;-87
2022/02/10 02:23:11;;;;;;;4.07;2.93;;;;;;;;;;6131342;23;20517;-87
2022/02/10 02:26:22;;;;;;;4.83;2.70;;;;;;;;;;6164887;23;20517;-87
2022/02/10 02:29:32;;;;;;;4.17;2.77;;;;;;;;;;6148378;23;20505;-87
2022/02/10 02:32:47;;;;;;;4.30;2.90;;;;;;;;;;6131057;23;20513;-87
2022/02/10 03:06:19;;;;;;;4.43;3.23;;;;;;;;;;6130484;23;20514;-87
2022/02/10 03:09:26;;;;;;;5.20;3.30;;;;;;;;;;6120995;23;20620;-87
2022/02/10 03:12:31;;;;;;;4.50;3.00;;;;;;;;;;6139388;23;20565;-87
2022/02/10 03:15:47;;;;;;;4.83;3.30;;;;;;;;;;6132815;23;20513;-86
2022/02/10 04:06:37;;;;;;;5.93;3.40;;;;;;;;;;6158560;23;20553;-84
2022/02/10 04:16:07;;;;;;;5.77;3.20;;;;;;;;;;6132692;23;20506;-85
2022/02/10 04:23:03;;;;;;;4.37;2.97;;;;;;;;;;6133062;23;20509;-85
2022/02/10 04:32:36;;;;;;;5.13;3.30;;;;;;;;;;6133197;23;21034;-88
2022/02/10 04:39:59;;;;;;;6.10;3.30;;;;;;;;;;6139935;23;20616;-84
2022/02/10 04:56:00;;;;;;;5.33;3.37;;;;;;;;;;6149302;23;20505;-87
2022/02/10 04:59:37;;;;;;;4.40;2.83;;;;;;;;;;6123708;23;20613;-84
2022/02/10 05:22:38;;;;;;;5.10;3.20;;;;;;;;;;6154051;23;20498;-85
2022/02/10 05:38:36;;;;;;;4.50;3.03;;;;;;;;;;6138649;23;20612;-88
2022/02/10 05:42:24;;;;;;;5.87;3.20;;;;;;;;;;6131843;23;20821;-85
2022/02/10 05:45:46;;;;;;;5.47;3.20;;;;;;;;;;6148305;23;20514;-85
2022/02/10 06:48:47;;;;;;;6.23;3.87;;;;;;;;;;6124398;23;20576;-86
2022/02/10 06:51:49;;;;;;;3.90;2.73;;;;;;;;;;6134119;23;20505;-86
2022/02/10 06:55:08;;;;;;;4.97;2.90;;;;;;;;;;6150517;23;20502;-87
2022/02/10 07:15:37;;;;;;;5.93;3.57;;;;;;;;;;6133142;23;20835;-87
2022/02/10 07:49:12;;;;;;;5.83;4.70;;;;;;;;;;6123133;23;20588;-85
2022/02/10 07:52:40;;;;;;;5.83;4.13;;;;;;;;;;6133335;23;20505;-85
2022/02/10 08:56:24;;;;;;;14.03;11.90;;;;;;;;;;6131837;23;20154;-89
2022/02/10 09:03:10;;;;;;;11.70;4.83;;;;;;;;;;6167512;23;20157;-85
2022/02/10 09:06:21;;;;;;;9.27;3.70;;;;;;;;;;6149011;23;20154;-89
2022/02/10 09:23:35;;;;;;;5.43;3.87;;;;;;;;;;6132071;23;20153;-86
2022/02/10 10:03:41;;;;;;;8.23;3.93;;;;;;;;;;6148869;23;20154;-85
2022/02/10 10:07:01;;;;;;;5.13;3.40;;;;;;;;;;6131603;23;20157;-85
2022/02/10 10:11:02;;;;;;;7.27;4.40;;;;;;;;;;6149042;23;20150;-86
2022/02/10 10:14:13;;;;;;;5.97;2.67;;;;;;;;;;6148826;23;20158;-85
2022/02/10 10:23:43;;;;;;;9.07;3.93;;;;;;;;;;6131243;23;20160;-85
2022/02/10 10:50:26;;;;;;;3.97;2.50;;;;;;;;;;6147855;23;20158;-89
2022/02/10 10:56:41;;;;;;;3.50;2.40;;;;;;;;;;6147889;23;20157;-89
2022/02/10 11:00:24;;;;;;;3.87;2.30;;;;;;;;;;6130616;23;20229;-89
2022/02/10 11:42:02;;;;;;;4.80;2.63;;;;;;;;;;6179740;23;20460;-86
2022/02/10 13:27:37;;;;;;;9.30;4.23;;;;;;;;;;6179212;23;20163;-85
2022/02/10 14:18:14;;;;;;;7.67;3.87;;;;;;;;;;6077984;23;20549;-88
2022/02/10 14:21:23;;;;;;;8.20;3.63;;;;;;;;;;6195117;23;20185;-87
2022/02/10 14:27:50;;;;;;;14.10;8.00;;;;;;;;;;6175544;23;20192;-85
2022/02/10 14:30:55;;;;;;;9.47;4.20;;;;;;;;;;6163886;23;20486;-86
2022/02/10 14:33:59;;;;;;;5.93;3.53;;;;;;;;;;6162442;23;20156;-87
2022/02/10 15:15:03;;;;;;;9.27;4.00;;;;;;;;;;6186812;23;20464;-85
2022/02/10 15:18:36;;;;;;;6.33;3.90;;;;;;;;;;6189777;23;20192;-85
2022/02/10 15:52:00;;;;;;;8.87;3.50;;;;;;;;;;6180283;23;20149;-85
2022/02/10 16:15:42;;;;;;;11.87;7.40;;;;;;;;;;6166493;23;20149;-86
2022/02/10 16:18:53;;;;;;;12.47;8.40;;;;;;;;;;6158404;23;20188;-87
2022/02/10 16:25:20;;;;;;;20.87;11.83;;;;;;;;;;6181822;23;20154;-88
2022/02/10 16:28:28;;;;;;;19.47;11.47;;;;;;;;;;6171164;23;20192;-88
2022/02/10 16:31:32;;;;;;;16.23;8.97;;;;;;;;;;6152931;23;20514;-87
2022/02/10 16:34:40;;;;;;;24.70;14.57;;;;;;;;;;6165460;23;20156;-88
2022/02/10 16:37:46;;;;;;;26.10;16.90;;;;;;;;;;6161046;23;20208;-86
2022/02/10 16:40:50;;;;;;;19.00;11.60;;;;;;;;;;6163058;23;20526;-87
2022/02/10 16:43:54;;;;;;;14.07;6.80;;;;;;;;;;6178711;23;20157;-88
2022/02/10 16:47:00;;;;;;;8.07;4.93;;;;;;;;;;6161601;23;20153;-86
2022/02/10 16:50:04;;;;;;;9.53;5.70;;;;;;;;;;6161955;23;20157;-88
2022/02/10 16:53:11;;;;;;;8.97;5.03;;;;;;;;;;6161630;23;20148;-88
2022/02/10 16:56:21;;;;;;;8.47;5.13;;;;;;;;;;6155752;23;20177;-86
2022/02/10 16:59:51;;;;;;;9.13;4.87;;;;;;;;;;6153534;23;20196;-88
2022/02/10 17:17:05;;;;;;;9.67;5.53;;;;;;;;;;6179709;23;20590;-85
2022/02/10 17:20:01;;;;;;;8.43;5.60;;;;;;;;;;6152656;23;20172;-86
2022/02/10 17:34:02;;;;;;;12.73;5.87;;;;;;;;;;6178298;23;20594;-88
2022/02/10 17:36:32;;;;;;;9.60;5.57;;;;;;;;;;6177181;23;20177;-87
2022/02/10 17:46:27;;;;;;;9.00;5.77;;;;;;;;;;6178016;23;20157;-88
2022/02/10 17:53:03;;;;;;;19.87;13.60;;;;;;;;;;6162046;23;20149;-85
2022/02/10 17:56:09;;;;;;;14.30;8.60;;;;;;;;;;6162225;23;20490;-85
2022/02/10 17:59:12;;;;;;;9.33;7.30;;;;;;;;;;6151278;23;20193;-88
2022/02/10 18:02:16;;;;;;;10.50;6.70;;;;;;;;;;6161812;23;20184;-86
2022/02/10 18:09:22;;;;;;;7.43;5.43;;;;;;;;;;6147118;23;20197;-88
2022/02/10 18:15:40;;;;;;;12.57;6.60;;;;;;;;;;6161304;23;20152;-89
2022/02/10 18:18:52;;;;;;;12.80;6.33;;;;;;;;;;6153610;23;20188;-85
2022/02/10 18:35:31;;;;;;;10.63;6.20;;;;;;;;;;6151101;23;20168;-88
2022/02/10 19:01:33;;;;;;;11.53;6.43;;;;;;;;;;6179865;23;20161;-87
2022/02/10 19:08:19;;;;;;;11.00;6.10;;;;;;;;;;6176756;23;20189;-85
2022/02/10 19:11:23;;;;;;;11.43;6.43;;;;;;;;;;6162955;23;20456;-85
2022/02/10 19:14:31;;;;;;;9.53;6.37;;;;;;;;;;6162923;23;20157;-85
2022/02/10 19:17:36;;;;;;;9.57;6.73;;;;;;;;;;6178484;23;20192;-89
2022/02/10 19:20:40;;;;;;;12.43;6.90;;;;;;;;;;6197130;23;20157;-89
2022/02/10 19:23:44;;;;;;;12.33;7.93;;;;;;;;;;6155604;23;20169;-84
2022/02/10 19:26:50;;;;;;;11.03;8.07;;;;;;;;;;6163260;23;20464;-87
2022/02/10 19:29:57;;;;;;;13.30;8.27;;;;;;;;;;6180574;23;20157;-87
2022/02/10 19:33:04;;;;;;;13.20;7.93;;;;;;;;;;6152991;23;20168;-88
2022/02/10 19:36:08;;;;;;;10.00;7.83;;;;;;;;;;6152508;23;20169;-89
2022/02/10 19:39:17;;;;;;;11.87;8.03;;;;;;;;;;6168020;23;20200;-88
2022/02/10 19:42:20;;;;;;;15.27;8.43;;;;;;;;;;6162805;23;20184;-85
2022/02/10 19:45:24;;;;;;;10.43;7.30;;;;;;;;;;6180945;23;20153;-85
2022/02/10 19:48:29;;;;;;;14.43;8.30;;;;;;;;;;6156333;23;20192;-87
2022/02/10 19:51:33;;;;;;;13.10;9.27;;;;;;;;;;6179366;23;20153;-88
2022/02/10 19:54:40;;;;;;;12.10;6.87;;;;;;;;;;6178735;23;20157;-87
2022/02/10 19:57:46;;;;;;;11.87;8.67;;;;;;;;;;6159503;23;20188;-85
2022/02/10 20:00:55;;;;;;;10.00;7.57;;;;;;;;;;6179366;23;20157;-87
2022/02/10 20:04:04;;;;;;;14.83;7.13;;;;;;;;;;6169874;23;20173;-86
2022/02/10 20:07:11;;;;;;;21.70;7.47;;;;;;;;;;6178882;23;20157;-88
2022/02/10 20:10:15;;;;;;;14.23;6.97;;;;;;;;;;6179580;23;20157;-86
2022/02/10 20:13:20;;;;;;;11.00;6.70;;;;;;;;;;6179122;23;20606;-89
2022/02/10 20:16:24;;;;;;;11.73;7.00;;;;;;;;;;6162580;23;20459;-90
2022/02/10 20:19:29;;;;;;;11.50;7.30;;;;;;;;;;6169232;23;20169;-90
2022/02/10 20:22:37;;;;;;;13.63;7.83;;;;;;;;;;6179189;23;20185;-88
2022/02/10 20:25:42;;;;;;;12.93;7.57;;;;;;;;;;6162437;23;20157;-86
2022/02/10 20:28:46;;;;;;;14.03;9.07;;;;;;;;;;6155061;23;20196;-89
2022/02/10 20:31:50;;;;;;;13.10;8.33;;;;;;;;;;6161584;23;20149;-89
2022/02/10 20:34:54;;;;;;;17.00;9.53;;;;;;;;;;6178601;23;20157;-89
2022/02/10 20:38:02;;;;;;;17.47;9.57;;;;;;;;;;6174102;23;20195;-89
2022/02/10 20:41:11;;;;;;;14.90;9.20;;;;;;;;;;6180037;23;20464;-86
2022/02/10 20:44:15;;;;;;;11.33;7.60;;;;;;;;;;6162023;23;20583;-86
2022/02/10 20:47:22;;;;;;;13.93;8.60;;;;;;;;;;6177372;23;20157;-89
2022/02/10 20:50:26;;;;;;;17.13;8.40;;;;;;;;;;6163299;23;20184;-86
2022/02/10 20:53:30;;;;;;;12.13;8.37;;;;;;;;;;6162737;23;20153;-86
2022/02/10 20:56:34;;;;;;;13.13;7.53;;;;;;;;;;6169417;23;20169;-89
2022/02/10 20:59:42;;;;;;;10.43;7.33;;;;;;;;;;6152103;23;20172;-89
2022/02/10 21:02:48;;;;;;;12.57;7.27;;;;;;;;;;6179193;23;20188;-89
2022/02/10 21:06:01;;;;;;;11.70;7.47;;;;;;;;;;6178580;23;20157;-88
2022/02/10 21:09:12;;;;;;;13.60;7.40;;;;;;;;;;6154133;23;20193;-86
2022/02/10 21:12:17;;;;;;;10.47;7.13;;;;;;;;;;6163587;23;20157;-86
2022/02/10 21:15:28;;;;;;;12.27;7.37;;;;;;;;;;6152622;23;20172;-90
2022/02/10 21:18:34;;;;;;;11.67;7.57;;;;;;;;;;6156286;23;20645;-86
2022/02/10 21:21:40;;;;;;;12.70;7.17;;;;;;;;;;6152967;23;20173;-89
2022/02/10 21:25:01;;;;;;;11.33;6.23;;;;;;;;;;6168657;23;20169;-88
2022/02/10 21:28:29;;;;;;;10.20;5.80;;;;;;;;;;6159764;23;20188;-86
2022/02/10 21:31:42;;;;;;;10.77;6.77;;;;;;;;;;6162269;23;20456;-89
2022/02/10 21:35:02;;;;;;;11.17;6.80;;;;;;;;;;6178829;23;20157;-86
2022/02/10 21:48:22;;;;;;;12.57;6.50;;;;;;;;;;6192871;23;20189;-86
2022/02/10 21:55:13;;;;;;;11.97;6.90;;;;;;;;;;6195808;23;20461;-85
2022/02/10 22:11:55;;;;;;;10.57;6.73;;;;;;;;;;6178054;23;20157;-90
2022/02/10 22:21:45;;;;;;;12.00;7.00;;;;;;;;;;6195791;23;20161;-86
2022/02/10 22:24:49;;;;;;;11.27;6.67;;;;;;;;;;6185522;23;20173;-86
2022/02/10 22:27:55;;;;;;;13.60;7.33;;;;;;;;;;6168375;23;20649;-86
2022/02/10 22:34:29;;;;;;;12.50;7.13;;;;;;;;;;6178161;23;20153;-89
2022/02/10 22:37:34;;;;;;;9.83;6.53;;;;;;;;;;6158515;23;20665;-86
2022/02/10 22:40:58;;;;;;;11.33;6.67;;;;;;;;;;6161463;23;20153;-86
2022/02/10 22:44:03;;;;;;;13.40;6.90;;;;;;;;;;6161580;23;20181;-86
2022/02/10 22:47:08;;;;;;;13.03;7.07;;;;;;;;;;6160842;23;20161;-86
2022/02/10 22:50:13;;;;;;;9.50;6.70;;;;;;;;;;6178220;23;20157;-87
2022/02/10 22:53:17;;;;;;;11.27;7.00;;;;;;;;;;6161100;23;20149;-89
2022/02/10 22:56:29;;;;;;;15.87;8.17;;;;;;;;;;6196747;23;20452;-89
2022/02/10 22:59:33;;;;;;;14.27;6.87;;;;;;;;;;6161194;23;20154;-89
2022/02/10 23:02:38;;;;;;;11.30;7.33;;;;;;;;;;6177992;23;20484;-86
2022/02/10 23:05:42;;;;;;;13.17;7.80;;;;;;;;;;6161148;23;20149;-89
2022/02/10 23:08:47;;;;;;;11.93;6.90;;;;;;;;;;6153849;23;20192;-89
2022/02/10 23:11:52;;;;;;;11.27;7.13;;;;;;;;;;6161026;23;20583;-86
2022/02/10 23:14:57;;;;;;;11.67;6.53;;;;;;;;;;6151502;23;20169;-88
2022/02/10 23:18:04;;;;;;;13.00;7.20;;;;;;;;;;6156830;23;20650;-89
2022/02/10 23:21:12;;;;;;;11.70;6.80;;;;;;;;;;6152397;23;20614;-89
2022/02/10 23:24:16;;;;;;;14.43;9.23;;;;;;;;;;6160814;23;20185;-90
2022/02/10 23:27:20;;;;;;;14.57;8.10;;;;;;;;;;6151207;23;20169;-89
2022/02/10 23:30:25;;;;;;;11.50;8.23;;;;;;;;;;6152816;23;20173;-90
2022/02/10 23:33:35;;;;;;;14.70;7.67;;;;;;;;;;6162606;23;20149;-90
2022/02/10 23:36:48;;;;;;;13.03;8.40;;;;;;;;;;6162861;23;20152;-90
2022/02/10 23:39:52;;;;;;;11.93;7.50;;;;;;;;;;6123473;23;20627;-90
2022/02/10 23:42:56;;;;;;;17.87;7.73;;;;;;;;;;6132884;23;20484;-90
2022/02/10 23:46:00;;;;;;;14.33;8.20;;;;;;;;;;6149711;23;20153;-89
2022/02/10 23:49:05;;;;;;;13.57;7.70;;;;;;;;;;6141494;23;20193;-89
2022/02/10 23:52:13;;;;;;;12.53;8.17;;;;;;;;;;6140169;23;20170;-90
2022/02/10 23:55:25;;;;;;;12.17;7.53;;;;;;;;;;6132895;23;20154;-90
